Map

Track Data

SID SEASON NUMBER BASIN SUBBASIN NAME ISO_TIME NATURE LAT LON WMO_WIND WMO_PRES WMO_AGENCY TRACK_TYPE DIST2LAND LANDFALL IFLAG USA_AGENCY USA_ATCF_ID USA_LAT USA_LON USA_RECORD USA_STATUS USA_WIND USA_PRES USA_SSHS USA_R34_NE USA_R34_SE USA_R34_SW USA_R34_NW USA_R50_NE USA_R50_SE USA_R50_SW USA_R50_NW USA_R64_NE USA_R64_SE USA_R64_SW USA_R64_NW USA_POCI USA_ROCI USA_RMW USA_EYE TOKYO_LAT TOKYO_LON TOKYO_GRADE TOKYO_WIND TOKYO_PRES TOKYO_R50_DIR TOKYO_R50_LONG TOKYO_R50_SHORT TOKYO_R30_DIR TOKYO_R30_LONG TOKYO_R30_SHORT TOKYO_LAND CMA_LAT CMA_LON CMA_CAT CMA_WIND CMA_PRES HKO_LAT HKO_LON HKO_CAT HKO_WIND HKO_PRES NEWDELHI_LAT NEWDELHI_LON NEWDELHI_GRADE NEWDELHI_WIND NEWDELHI_PRES NEWDELHI_CI NEWDELHI_DP NEWDELHI_POCI REUNION_LAT REUNION_LON REUNION_TYPE REUNION_WIND REUNION_PRES REUNION_TNUM REUNION_CI REUNION_RMW REUNION_R34_NE REUNION_R34_SE REUNION_R34_SW REUNION_R34_NW REUNION_R50_NE REUNION_R50_SE REUNION_R50_SW REUNION_R50_NW REUNION_R64_NE REUNION_R64_SE REUNION_R64_SW REUNION_R64_NW BOM_LAT BOM_LON BOM_TYPE BOM_WIND BOM_PRES BOM_TNUM BOM_CI BOM_RMW BOM_R34_NE BOM_R34_SE BOM_R34_SW BOM_R34_NW BOM_R50_NE BOM_R50_SE BOM_R50_SW BOM_R50_NW BOM_R64_NE BOM_R64_SE BOM_R64_SW BOM_R64_NW BOM_ROCI BOM_POCI BOM_EYE BOM_POS_METHOD BOM_PRES_METHOD NADI_LAT NADI_LON NADI_CAT NADI_WIND NADI_PRES WELLINGTON_LAT WELLINGTON_LON WELLINGTON_WIND WELLINGTON_PRES DS824_LAT DS824_LON DS824_STAGE DS824_WIND DS824_PRES TD9636_LAT TD9636_LON TD9636_STAGE TD9636_WIND TD9636_PRES TD9635_LAT TD9635_LON TD9635_WIND TD9635_PRES TD9635_ROCI NEUMANN_LAT NEUMANN_LON NEUMANN_CLASS NEUMANN_WIND NEUMANN_PRES MLC_LAT MLC_LON MLC_CLASS MLC_WIND MLC_PRES USA_GUST BOM_GUST BOM_GUST_PER REUNION_GUST REUNION_GUST_PER USA_SEAHGT USA_SEARAD_NE USA_SEARAD_SE USA_SEARAD_SW USA_SEARAD_NW STORM_SPEED STORM_DIR
1887247N12116 1887 42 WP MM NOT_NAMED 1887-09-03 16:00:00 NR 11.5000 116.400 main 299 299 __________O___ -1 11.5000 116.400 7 8 323
1887247N12116 1887 42 WP MM NOT_NAMED 1887-09-03 18:00:00 NR 11.7153 116.239 main 330 330 __________P___ -1 11.7153 116.239 7 8 324
1887247N12116 1887 42 WP MM NOT_NAMED 1887-09-03 21:00:00 NR 12.0324 116.008 main 370 370 __________P___ -1 12.0324 116.008 7 8 325
1887247N12116 1887 42 WP MM NOT_NAMED 1887-09-04 00:00:00 NR 12.3348 115.803 main 409 414 __________P___ -1 12.3348 115.803 7 7 328
1887247N12116 1887 42 WP MM NOT_NAMED 1887-09-04 03:00:00 NR 12.6137 115.641 main 442 442 __________P___ -1 12.6137 115.641 7 6 332
1887247N12116 1887 42 WP MM NOT_NAMED 1887-09-04 04:00:00 NR 12.7000 115.600 main 446 446 __________O___ -1 12.7000 115.600 7 5 337
1887247N12116 1887 42 WP MM NOT_NAMED 1887-09-04 06:00:00 NR 12.8613 115.537 main 465 465 __________P___ -1 12.8613 115.537 7 5 344
1887247N12116 1887 42 WP MM NOT_NAMED 1887-09-04 09:00:00 NR 13.0783 115.482 main 474 474 __________P___ -1 13.0783 115.482 7 4 348
1887247N12116 1887 42 WP MM NOT_NAMED 1887-09-04 12:00:00 NR 13.2707 115.450 main 494 494 __________P___ -1 13.2707 115.450 7 4 349
1887247N12116 1887 42 WP MM NOT_NAMED 1887-09-04 15:00:00 NR 13.4449 115.416 main 499 505 __________P___ -1 13.4449 115.416 7 4 348
1887247N12116 1887 42 WP MM NOT_NAMED 1887-09-04 16:00:00 NR 13.5000 115.400 main 505 505 __________O___ -1 13.5000 115.400 7 4 338
1887247N12116 1887 42 WP MM NOT_NAMED 1887-09-04 18:00:00 NR 13.6167 115.345 main 520 520 __________P___ -1 13.6167 115.345 7 4 332
1887247N12116 1887 42 WP MM NOT_NAMED 1887-09-04 21:00:00 NR 13.7792 115.249 main 536 532 __________P___ -1 13.7792 115.249 7 4 328
1887247N12116 1887 42 WP MM NOT_NAMED 1887-09-05 00:00:00 NR 13.9267 115.144 main 543 539 __________P___ -1 13.9267 115.144 7 4 324
1887247N12116 1887 42 WP MM NOT_NAMED 1887-09-05 03:00:00 NR 14.0592 115.036 main 546 546 __________P___ -1 14.0592 115.036 7 3 321
1887247N12116 1887 42 WP MM NOT_NAMED 1887-09-05 04:00:00 NR 14.1000 115.000 main 546 546 __________O___ -1 14.1000 115.000 7 3 318
1887247N12116 1887 42 WP MM NOT_NAMED 1887-09-05 06:00:00 NR 14.1728 114.931 main 553 553 __________P___ -1 14.1728 114.931 7 3 316
1887247N12116 1887 42 WP MM NOT_NAMED 1887-09-05 09:00:00 NR 14.2694 114.827 main 559 559 __________P___ -1 14.2694 114.827 7 3 314
1887247N12116 1887 42 WP MM NOT_NAMED 1887-09-05 12:00:00 NR 14.3617 114.725 main 565 565 __________P___ -1 14.3617 114.725 7 3 315
1887247N12116 1887 42 WP MM NOT_NAMED 1887-09-05 15:00:00 NR 14.4624 114.630 main 572 572 __________P___ -1 14.4624 114.630 7 3 320
1887247N12116 1887 42 WP MM NOT_NAMED 1887-09-05 16:00:00 NR 14.5000 114.600 main 572 566 __________O___ -1 14.5000 114.600 7 3 327
1887247N12116 1887 42 WP MM NOT_NAMED 1887-09-05 18:00:00 NR 14.5912 114.550 main 566 566 __________P___ -1 14.5912 114.550 7 3 334
1887247N12116 1887 42 WP MM NOT_NAMED 1887-09-05 21:00:00 NR 14.7406 114.480 main 567 558 __________P___ -1 14.7406 114.480 7 3 336
1887247N12116 1887 42 WP MM NOT_NAMED 1887-09-06 00:00:00 NR 14.8970 114.410 main 560 552 __________P___ -1 14.8970 114.410 7 3 336
1887247N12116 1887 42 WP MM NOT_NAMED 1887-09-06 03:00:00 NR 15.0509 114.330 main 555 555 __________P___ -1 15.0509 114.330 7 3 333
1887247N12116 1887 42 WP MM NOT_NAMED 1887-09-06 04:00:00 NR 15.1000 114.300 main 555 547 __________O___ -1 15.1000 114.300 3 3 321
1887247N12116 1887 42 WP MM NOT_NAMED 1887-09-06 06:00:00 NR 15.1812 114.225 main 547 539 __________P___ -1 15.1812 114.225 3 3 315
1887247N12116 1887 42 WP MM NOT_NAMED 1887-09-06 09:00:00 NR 15.2965 114.101 main 539 529 __________P___ -1 15.2965 114.101 3 3 313
1887247N12116 1887 42 WP MM NOT_NAMED 1887-09-06 12:00:00 NR 15.4151 113.970 main 531 508 __________P___ -1 15.4151 113.970 3 4 315
1887247N12116 1887 42 WP MM NOT_NAMED 1887-09-06 15:00:00 NR 15.5495 113.841 main 508 500 __________P___ -1 15.5495 113.841 3 4 318
1887247N12116 1887 42 WP MM NOT_NAMED 1887-09-06 16:00:00 NR 15.6000 113.800 main 500 493 __________O___ -1 15.6000 113.800 4 3 340
1887247N12116 1887 42 WP MM NOT_NAMED 1887-09-06 18:00:00 NR 15.6786 113.807 main 493 485 __________P___ -1 15.6786 113.807 4 3 0
1887247N12116 1887 42 WP MM NOT_NAMED 1887-09-06 21:00:00 NR 15.8147 113.827 main 485 469 __________P___ -1 15.8147 113.827 4 3 352
1887247N12116 1887 42 WP MM NOT_NAMED 1887-09-07 00:00:00 NR 16.0040 113.769 main 469 423 __________P___ -1 16.0040 113.769 4 5 329
1887247N12116 1887 42 WP MM NOT_NAMED 1887-09-07 03:00:00 NR 16.2817 113.535 main 423 408 __________P___ -1 16.2817 113.535 4 8 318
1887247N12116 1887 42 WP MM NOT_NAMED 1887-09-07 04:00:00 NR 16.4000 113.400 main 408 354 __________O___ -1 16.4000 113.400 4 13 311
1887247N12116 1887 42 WP MM NOT_NAMED 1887-09-07 06:00:00 NR 16.7134 113.022 main 354 253 __________P___ -1 16.7134 113.022 4 17 309
1887247N12116 1887 42 WP MM NOT_NAMED 1887-09-07 09:00:00 NR 17.2719 112.258 main 253 130 __________P___ -1 17.2719 112.258 4 20 305
1887247N12116 1887 42 WP MM NOT_NAMED 1887-09-07 12:00:00 NR 17.8698 111.317 main 130 23 __________P___ -1 17.8698 111.317 4 22 301
1887247N12116 1887 42 WP MM NOT_NAMED 1887-09-07 15:00:00 NR 18.4328 110.264 main 23 0 __________P___ -1 18.4328 110.264 4 23 299
1887247N12116 1887 42 WP MM NOT_NAMED 1887-09-07 16:00:00 NR 18.6000 109.900 main 0 0 __________O___ -1 18.6000 109.900 4 23 294
1887247N12116 1887 42 WP MM NOT_NAMED 1887-09-07 18:00:00 NR 18.8928 109.165 main 0 0 __________P___ -1 18.8928 109.165 4 22 290
1887247N12116 1887 42 WP MM NOT_NAMED 1887-09-07 21:00:00 NR 19.2422 108.048 main 63 62 __________P___ -1 19.2422 108.048 4 22 286
1887247N12116 1887 42 WP MM NOT_NAMED 1887-09-08 00:00:00 NR 19.5115 106.918 main 88 0 __________P___ -1 19.5115 106.918 4 22 283
1887247N12116 1887 42 WP MM NOT_NAMED 1887-09-08 03:00:00 NR 19.7320 105.780 main 0 0 __________P___ -1 19.7320 105.780 4 22 281
1887247N12116 1887 42 WP MM NOT_NAMED 1887-09-08 04:00:00 NR 19.8000 105.400 main 0 __________O___ -1 19.8000 105.400 7 22 281

Digital Typhoon Data and Search

About IBTrACS Database

This database is a web-friendly format of International Best Track Archive for Climate Stewardship (IBTrACS), a global best track data archive curated by NOAA dating back to 1842.

Updated: 2021-12-06